sensor_id;sensor_type;location;lat;lon;timestamp;P1;durP1;ratioP1;P2;durP2;ratioP2
23716;SDS011;22094;52.130;5.598;2023-12-14T00:00:28;33.25;;;19.42;;
23716;SDS011;22094;52.130;5.598;2023-12-14T00:02:53;33.88;;;19.10;;
23716;SDS011;22094;52.130;5.598;2023-12-14T00:05:19;32.97;;;18.92;;
23716;SDS011;22094;52.130;5.598;2023-12-14T00:07:44;32.30;;;18.80;;
23716;SDS011;22094;52.130;5.598;2023-12-14T00:10:10;32.42;;;17.58;;
23716;SDS011;22094;52.130;5.598;2023-12-14T00:12:37;30.45;;;18.23;;
23716;SDS011;22094;52.130;5.598;2023-12-14T00:15:03;35.35;;;18.55;;
23716;SDS011;22094;52.130;5.598;2023-12-14T00:17:29;32.38;;;18.40;;
23716;SDS011;22094;52.130;5.598;2023-12-14T00:19:55;32.83;;;17.83;;
23716;SDS011;22094;52.130;5.598;2023-12-14T00:22:20;32.13;;;17.65;;
23716;SDS011;22094;52.130;5.598;2023-12-14T00:24:46;31.20;;;18.58;;
23716;SDS011;22094;52.130;5.598;2023-12-14T00:27:11;31.50;;;18.33;;
23716;SDS011;22094;52.130;5.598;2023-12-14T00:29:37;27.90;;;17.85;;
23716;SDS011;22094;52.130;5.598;2023-12-14T00:32:03;28.88;;;17.73;;
23716;SDS011;22094;52.130;5.598;2023-12-14T00:34:29;31.17;;;18.50;;
23716;SDS011;22094;52.130;5.598;2023-12-14T00:36:54;28.98;;;18.13;;
23716;SDS011;22094;52.130;5.598;2023-12-14T00:39:20;28.38;;;17.83;;
23716;SDS011;22094;52.130;5.598;2023-12-14T00:41:45;30.17;;;18.67;;
23716;SDS011;22094;52.130;5.598;2023-12-14T00:44:11;29.15;;;18.27;;
23716;SDS011;22094;52.130;5.598;2023-12-14T00:46:36;29.58;;;18.65;;
23716;SDS011;22094;52.130;5.598;2023-12-14T00:49:02;27.73;;;17.67;;
23716;SDS011;22094;52.130;5.598;2023-12-14T00:51:28;30.70;;;18.80;;
23716;SDS011;22094;52.130;5.598;2023-12-14T00:53:53;28.92;;;17.60;;
23716;SDS011;22094;52.130;5.598;2023-12-14T00:56:19;25.17;;;17.90;;
23716;SDS011;22094;52.130;5.598;2023-12-14T00:58:44;28.02;;;17.85;;
23716;SDS011;22094;52.130;5.598;2023-12-14T01:01:10;26.55;;;17.10;;
23716;SDS011;22094;52.130;5.598;2023-12-14T01:03:36;27.35;;;17.73;;
23716;SDS011;22094;52.130;5.598;2023-12-14T01:06:01;28.02;;;16.50;;
23716;SDS011;22094;52.130;5.598;2023-12-14T01:08:27;24.75;;;17.10;;
23716;SDS011;22094;52.130;5.598;2023-12-14T01:10:52;25.55;;;16.90;;
23716;SDS011;22094;52.130;5.598;2023-12-14T01:13:18;25.77;;;17.23;;
23716;SDS011;22094;52.130;5.598;2023-12-14T01:15:43;25.02;;;16.73;;
23716;SDS011;22094;52.130;5.598;2023-12-14T01:18:09;24.90;;;15.90;;
23716;SDS011;22094;52.130;5.598;2023-12-14T01:20:34;23.13;;;15.77;;
23716;SDS011;22094;52.130;5.598;2023-12-14T01:23:00;23.80;;;15.93;;
23716;SDS011;22094;52.130;5.598;2023-12-14T01:25:25;23.88;;;15.80;;
23716;SDS011;22094;52.130;5.598;2023-12-14T01:27:51;26.30;;;16.20;;
23716;SDS011;22094;52.130;5.598;2023-12-14T01:30:16;22.85;;;15.40;;
23716;SDS011;22094;52.130;5.598;2023-12-14T01:32:42;23.08;;;15.52;;
23716;SDS011;22094;52.130;5.598;2023-12-14T01:35:08;22.45;;;15.70;;
23716;SDS011;22094;52.130;5.598;2023-12-14T01:37:33;24.40;;;15.27;;
23716;SDS011;22094;52.130;5.598;2023-12-14T01:39:59;21.92;;;15.18;;
23716;SDS011;22094;52.130;5.598;2023-12-14T01:42:24;23.00;;;15.13;;
23716;SDS011;22094;52.130;5.598;2023-12-14T01:44:51;20.27;;;14.85;;
23716;SDS011;22094;52.130;5.598;2023-12-14T01:47:16;21.25;;;14.65;;
23716;SDS011;22094;52.130;5.598;2023-12-14T01:49:42;21.55;;;15.07;;
23716;SDS011;22094;52.130;5.598;2023-12-14T01:52:08;22.67;;;15.82;;
23716;SDS011;22094;52.130;5.598;2023-12-14T01:54:33;21.00;;;14.55;;
23716;SDS011;22094;52.130;5.598;2023-12-14T01:56:59;23.27;;;15.60;;
23716;SDS011;22094;52.130;5.598;2023-12-14T01:59:24;22.77;;;16.67;;
23716;SDS011;22094;52.130;5.598;2023-12-14T02:01:53;22.90;;;15.55;;
23716;SDS011;22094;52.130;5.598;2023-12-14T02:04:21;23.17;;;16.15;;
23716;SDS011;22094;52.130;5.598;2023-12-14T02:06:48;22.23;;;15.27;;
23716;SDS011;22094;52.130;5.598;2023-12-14T02:09:13;22.17;;;14.95;;
23716;SDS011;22094;52.130;5.598;2023-12-14T02:11:39;23.73;;;15.18;;
23716;SDS011;22094;52.130;5.598;2023-12-14T02:14:05;21.63;;;15.07;;
23716;SDS011;22094;52.130;5.598;2023-12-14T02:16:31;21.92;;;15.25;;
23716;SDS011;22094;52.130;5.598;2023-12-14T02:18:57;22.45;;;15.75;;
23716;SDS011;22094;52.130;5.598;2023-12-14T02:21:22;21.33;;;15.75;;
23716;SDS011;22094;52.130;5.598;2023-12-14T02:23:48;21.52;;;16.13;;
23716;SDS011;22094;52.130;5.598;2023-12-14T02:26:14;23.30;;;16.05;;
23716;SDS011;22094;52.130;5.598;2023-12-14T02:28:39;23.10;;;16.50;;
23716;SDS011;22094;52.130;5.598;2023-12-14T02:31:05;23.38;;;16.20;;
23716;SDS011;22094;52.130;5.598;2023-12-14T02:33:31;24.70;;;15.13;;
23716;SDS011;22094;52.130;5.598;2023-12-14T02:35:56;21.33;;;16.13;;
23716;SDS011;22094;52.130;5.598;2023-12-14T02:38:22;22.60;;;16.30;;
23716;SDS011;22094;52.130;5.598;2023-12-14T02:40:47;20.85;;;15.48;;
23716;SDS011;22094;52.130;5.598;2023-12-14T02:43:15;23.80;;;16.48;;
23716;SDS011;22094;52.130;5.598;2023-12-14T02:45:41;21.70;;;15.80;;
23716;SDS011;22094;52.130;5.598;2023-12-14T02:48:06;21.65;;;15.05;;
23716;SDS011;22094;52.130;5.598;2023-12-14T02:50:32;22.73;;;16.17;;
23716;SDS011;22094;52.130;5.598;2023-12-14T02:52:57;23.58;;;15.73;;
23716;SDS011;22094;52.130;5.598;2023-12-14T02:55:23;22.23;;;15.65;;
23716;SDS011;22094;52.130;5.598;2023-12-14T02:57:48;23.52;;;16.00;;
23716;SDS011;22094;52.130;5.598;2023-12-14T03:00:14;21.27;;;16.38;;
23716;SDS011;22094;52.130;5.598;2023-12-14T03:02:40;22.85;;;15.85;;
23716;SDS011;22094;52.130;5.598;2023-12-14T03:05:05;21.38;;;15.85;;
23716;SDS011;22094;52.130;5.598;2023-12-14T03:07:31;20.73;;;15.35;;
23716;SDS011;22094;52.130;5.598;2023-12-14T03:09:57;21.90;;;15.18;;
23716;SDS011;22094;52.130;5.598;2023-12-14T03:12:22;20.92;;;15.38;;
23716;SDS011;22094;52.130;5.598;2023-12-14T03:14:48;20.70;;;15.38;;
23716;SDS011;22094;52.130;5.598;2023-12-14T03:17:13;20.58;;;14.98;;
23716;SDS011;22094;52.130;5.598;2023-12-14T03:19:40;21.02;;;15.20;;
23716;SDS011;22094;52.130;5.598;2023-12-14T03:22:08;21.30;;;15.90;;
23716;SDS011;22094;52.130;5.598;2023-12-14T03:24:34;21.13;;;15.40;;
23716;SDS011;22094;52.130;5.598;2023-12-14T03:27:01;21.80;;;15.45;;
23716;SDS011;22094;52.130;5.598;2023-12-14T03:29:27;20.02;;;14.68;;
23716;SDS011;22094;52.130;5.598;2023-12-14T03:31:53;21.27;;;15.48;;
23716;SDS011;22094;52.130;5.598;2023-12-14T03:34:23;20.60;;;14.88;;
23716;SDS011;22094;52.130;5.598;2023-12-14T03:36:49;22.38;;;15.90;;
23716;SDS011;22094;52.130;5.598;2023-12-14T03:39:15;20.02;;;14.90;;
23716;SDS011;22094;52.130;5.598;2023-12-14T03:41:41;20.10;;;14.80;;
23716;SDS011;22094;52.130;5.598;2023-12-14T03:44:07;21.52;;;15.38;;
23716;SDS011;22094;52.130;5.598;2023-12-14T03:46:33;19.98;;;14.73;;
23716;SDS011;22094;52.130;5.598;2023-12-14T03:48:59;18.73;;;14.75;;
23716;SDS011;22094;52.130;5.598;2023-12-14T03:51:25;19.10;;;14.13;;
23716;SDS011;22094;52.130;5.598;2023-12-14T03:53:50;23.20;;;15.23;;
23716;SDS011;22094;52.130;5.598;2023-12-14T03:56:16;19.58;;;14.63;;
23716;SDS011;22094;52.130;5.598;2023-12-14T03:58:42;20.98;;;14.73;;
23716;SDS011;22094;52.130;5.598;2023-12-14T04:01:07;20.15;;;13.90;;
23716;SDS011;22094;52.130;5.598;2023-12-14T04:03:33;22.02;;;14.32;;
23716;SDS011;22094;52.130;5.598;2023-12-14T04:05:58;20.08;;;14.35;;
23716;SDS011;22094;52.130;5.598;2023-12-14T04:08:24;20.90;;;13.93;;
23716;SDS011;22094;52.130;5.598;2023-12-14T04:10:50;20.13;;;13.57;;
23716;SDS011;22094;52.130;5.598;2023-12-14T04:13:15;19.73;;;13.85;;
23716;SDS011;22094;52.130;5.598;2023-12-14T04:15:41;25.50;;;15.45;;
23716;SDS011;22094;52.130;5.598;2023-12-14T04:18:07;20.98;;;14.43;;
23716;SDS011;22094;52.130;5.598;2023-12-14T04:20:33;20.02;;;14.27;;
23716;SDS011;22094;52.130;5.598;2023-12-14T04:22:59;22.10;;;15.07;;
23716;SDS011;22094;52.130;5.598;2023-12-14T04:25:24;22.73;;;15.10;;
23716;SDS011;22094;52.130;5.598;2023-12-14T04:27:50;22.83;;;15.00;;
23716;SDS011;22094;52.130;5.598;2023-12-14T04:30:16;22.50;;;15.07;;
23716;SDS011;22094;52.130;5.598;2023-12-14T04:32:41;22.45;;;15.02;;
23716;SDS011;22094;52.130;5.598;2023-12-14T04:35:07;20.50;;;14.57;;
23716;SDS011;22094;52.130;5.598;2023-12-14T04:37:33;21.88;;;14.95;;
23716;SDS011;22094;52.130;5.598;2023-12-14T04:39:59;23.70;;;14.57;;
23716;SDS011;22094;52.130;5.598;2023-12-14T04:42:24;22.95;;;14.75;;
23716;SDS011;22094;52.130;5.598;2023-12-14T04:44:50;20.48;;;14.52;;
23716;SDS011;22094;52.130;5.598;2023-12-14T04:47:15;19.60;;;14.05;;
23716;SDS011;22094;52.130;5.598;2023-12-14T04:49:41;21.33;;;15.00;;
23716;SDS011;22094;52.130;5.598;2023-12-14T04:52:07;23.88;;;15.52;;
23716;SDS011;22094;52.130;5.598;2023-12-14T04:54:33;19.25;;;14.75;;
23716;SDS011;22094;52.130;5.598;2023-12-14T04:57:00;21.80;;;14.23;;
23716;SDS011;22094;52.130;5.598;2023-12-14T04:59:26;21.42;;;14.25;;
23716;SDS011;22094;52.130;5.598;2023-12-14T05:01:51;22.30;;;15.88;;
23716;SDS011;22094;52.130;5.598;2023-12-14T05:04:17;22.35;;;15.30;;
23716;SDS011;22094;52.130;5.598;2023-12-14T05:06:42;20.35;;;14.45;;
23716;SDS011;22094;52.130;5.598;2023-12-14T05:09:08;20.88;;;14.43;;
23716;SDS011;22094;52.130;5.598;2023-12-14T05:11:36;21.33;;;13.70;;
23716;SDS011;22094;52.130;5.598;2023-12-14T05:14:02;20.83;;;13.55;;
23716;SDS011;22094;52.130;5.598;2023-12-14T05:16:28;17.98;;;13.07;;
23716;SDS011;22094;52.130;5.598;2023-12-14T05:18:53;19.00;;;13.65;;
23716;SDS011;22094;52.130;5.598;2023-12-14T05:21:19;22.63;;;15.63;;
23716;SDS011;22094;52.130;5.598;2023-12-14T05:23:45;35.92;;;16.58;;
23716;SDS011;22094;52.130;5.598;2023-12-14T05:26:10;42.38;;;17.40;;
23716;SDS011;22094;52.130;5.598;2023-12-14T05:28:36;26.13;;;14.40;;
23716;SDS011;22094;52.130;5.598;2023-12-14T05:31:02;27.08;;;14.60;;
23716;SDS011;22094;52.130;5.598;2023-12-14T05:33:28;35.10;;;15.25;;
23716;SDS011;22094;52.130;5.598;2023-12-14T05:35:53;39.78;;;15.10;;
23716;SDS011;22094;52.130;5.598;2023-12-14T05:38:19;25.90;;;14.13;;
23716;SDS011;22094;52.130;5.598;2023-12-14T05:40:45;32.10;;;15.05;;
23716;SDS011;22094;52.130;5.598;2023-12-14T05:43:10;26.90;;;13.38;;
23716;SDS011;22094;52.130;5.598;2023-12-14T05:45:36;27.48;;;15.18;;
23716;SDS011;22094;52.130;5.598;2023-12-14T05:48:02;38.03;;;14.68;;
23716;SDS011;22094;52.130;5.598;2023-12-14T05:50:30;22.67;;;13.50;;
23716;SDS011;22094;52.130;5.598;2023-12-14T05:52:56;18.67;;;12.90;;
23716;SDS011;22094;52.130;5.598;2023-12-14T05:55:21;17.08;;;11.85;;
23716;SDS011;22094;52.130;5.598;2023-12-14T05:57:48;22.90;;;12.18;;
23716;SDS011;22094;52.130;5.598;2023-12-14T06:00:14;18.42;;;11.13;;
23716;SDS011;22094;52.130;5.598;2023-12-14T06:02:39;20.17;;;11.32;;
23716;SDS011;22094;52.130;5.598;2023-12-14T06:05:06;16.25;;;11.25;;
23716;SDS011;22094;52.130;5.598;2023-12-14T06:07:32;21.38;;;12.00;;
23716;SDS011;22094;52.130;5.598;2023-12-14T06:09:58;17.17;;;11.13;;
23716;SDS011;22094;52.130;5.598;2023-12-14T06:12:25;16.02;;;11.25;;
23716;SDS011;22094;52.130;5.598;2023-12-14T06:14:51;23.48;;;12.05;;
23716;SDS011;22094;52.130;5.598;2023-12-14T06:17:17;20.25;;;11.15;;
23716;SDS011;22094;52.130;5.598;2023-12-14T06:19:42;19.30;;;11.45;;
23716;SDS011;22094;52.130;5.598;2023-12-14T06:22:08;16.67;;;10.38;;
23716;SDS011;22094;52.130;5.598;2023-12-14T06:24:34;16.52;;;10.88;;
23716;SDS011;22094;52.130;5.598;2023-12-14T06:26:59;28.20;;;11.75;;
23716;SDS011;22094;52.130;5.598;2023-12-14T06:29:25;16.98;;;10.43;;
23716;SDS011;22094;52.130;5.598;2023-12-14T06:31:50;27.23;;;12.30;;
23716;SDS011;22094;52.130;5.598;2023-12-14T06:34:17;22.25;;;10.43;;
23716;SDS011;22094;52.130;5.598;2023-12-14T06:36:43;14.30;;;10.00;;
23716;SDS011;22094;52.130;5.598;2023-12-14T06:39:11;15.20;;;10.02;;
23716;SDS011;22094;52.130;5.598;2023-12-14T06:41:37;15.48;;;10.40;;
23716;SDS011;22094;52.130;5.598;2023-12-14T06:44:03;13.63;;;9.48;;
23716;SDS011;22094;52.130;5.598;2023-12-14T06:46:29;21.20;;;11.05;;
23716;SDS011;22094;52.130;5.598;2023-12-14T06:48:55;21.27;;;11.05;;
23716;SDS011;22094;52.130;5.598;2023-12-14T06:51:23;18.00;;;10.13;;
23716;SDS011;22094;52.130;5.598;2023-12-14T06:53:49;23.95;;;12.10;;
23716;SDS011;22094;52.130;5.598;2023-12-14T06:56:15;18.02;;;10.82;;
23716;SDS011;22094;52.130;5.598;2023-12-14T06:58:41;17.38;;;10.95;;
23716;SDS011;22094;52.130;5.598;2023-12-14T07:01:15;22.13;;;11.43;;
23716;SDS011;22094;52.130;5.598;2023-12-14T07:03:41;16.45;;;10.85;;
23716;SDS011;22094;52.130;5.598;2023-12-14T07:06:13;14.18;;;10.60;;
23716;SDS011;22094;52.130;5.598;2023-12-14T07:08:40;18.73;;;11.60;;
23716;SDS011;22094;52.130;5.598;2023-12-14T07:11:09;17.58;;;11.23;;
23716;SDS011;22094;52.130;5.598;2023-12-14T07:13:35;15.43;;;11.15;;
23716;SDS011;22094;52.130;5.598;2023-12-14T07:16:03;15.43;;;10.75;;
23716;SDS011;22094;52.130;5.598;2023-12-14T07:18:33;16.15;;;10.75;;
23716;SDS011;22094;52.130;5.598;2023-12-14T07:21:00;15.90;;;11.10;;
23716;SDS011;22094;52.130;5.598;2023-12-14T07:23:26;16.77;;;11.27;;
23716;SDS011;22094;52.130;5.598;2023-12-14T07:25:52;17.80;;;11.77;;
23716;SDS011;22094;52.130;5.598;2023-12-14T07:28:18;16.52;;;11.32;;
23716;SDS011;22094;52.130;5.598;2023-12-14T07:30:44;18.67;;;10.98;;
23716;SDS011;22094;52.130;5.598;2023-12-14T07:33:11;15.18;;;11.70;;
23716;SDS011;22094;52.130;5.598;2023-12-14T07:35:36;17.80;;;11.32;;
23716;SDS011;22094;52.130;5.598;2023-12-14T07:38:02;15.70;;;11.07;;
23716;SDS011;22094;52.130;5.598;2023-12-14T07:40:28;13.82;;;10.88;;
23716;SDS011;22094;52.130;5.598;2023-12-14T07:42:53;19.33;;;13.85;;
23716;SDS011;22094;52.130;5.598;2023-12-14T07:45:19;15.75;;;11.68;;
23716;SDS011;22094;52.130;5.598;2023-12-14T07:47:44;18.73;;;12.95;;
23716;SDS011;22094;52.130;5.598;2023-12-14T07:50:11;17.75;;;13.38;;
23716;SDS011;22094;52.130;5.598;2023-12-14T07:52:37;17.17;;;12.18;;
23716;SDS011;22094;52.130;5.598;2023-12-14T07:55:03;19.55;;;12.35;;
23716;SDS011;22094;52.130;5.598;2023-12-14T07:57:30;19.77;;;13.10;;
23716;SDS011;22094;52.130;5.598;2023-12-14T07:59:56;17.17;;;12.68;;
23716;SDS011;22094;52.130;5.598;2023-12-14T08:02:21;17.08;;;12.43;;
23716;SDS011;22094;52.130;5.598;2023-12-14T08:04:47;13.70;;;10.73;;
23716;SDS011;22094;52.130;5.598;2023-12-14T08:07:13;14.75;;;10.82;;
23716;SDS011;22094;52.130;5.598;2023-12-14T08:09:38;14.40;;;11.02;;
23716;SDS011;22094;52.130;5.598;2023-12-14T08:12:04;14.05;;;10.43;;
23716;SDS011;22094;52.130;5.598;2023-12-14T08:14:32;13.82;;;10.95;;
23716;SDS011;22094;52.130;5.598;2023-12-14T08:17:02;12.98;;;10.50;;
23716;SDS011;22094;52.130;5.598;2023-12-14T08:19:28;17.58;;;11.32;;
23716;SDS011;22094;52.130;5.598;2023-12-14T08:21:57;16.33;;;10.82;;
23716;SDS011;22094;52.130;5.598;2023-12-14T08:24:22;13.95;;;11.13;;
23716;SDS011;22094;52.130;5.598;2023-12-14T08:26:48;15.43;;;11.02;;
23716;SDS011;22094;52.130;5.598;2023-12-14T08:29:13;17.40;;;10.70;;
23716;SDS011;22094;52.130;5.598;2023-12-14T08:31:39;19.00;;;11.05;;
23716;SDS011;22094;52.130;5.598;2023-12-14T08:34:04;17.88;;;11.40;;
23716;SDS011;22094;52.130;5.598;2023-12-14T08:36:30;20.50;;;12.25;;
23716;SDS011;22094;52.130;5.598;2023-12-14T08:38:56;17.98;;;11.95;;
23716;SDS011;22094;52.130;5.598;2023-12-14T08:41:22;19.10;;;11.40;;
23716;SDS011;22094;52.130;5.598;2023-12-14T08:43:47;16.40;;;11.02;;
23716;SDS011;22094;52.130;5.598;2023-12-14T08:46:13;13.70;;;10.52;;
23716;SDS011;22094;52.130;5.598;2023-12-14T08:48:39;14.32;;;10.40;;
23716;SDS011;22094;52.130;5.598;2023-12-14T08:51:04;14.73;;;10.60;;
23716;SDS011;22094;52.130;5.598;2023-12-14T08:53:30;14.85;;;11.18;;
23716;SDS011;22094;52.130;5.598;2023-12-14T08:55:56;15.23;;;11.73;;
23716;SDS011;22094;52.130;5.598;2023-12-14T08:58:21;17.13;;;10.88;;
23716;SDS011;22094;52.130;5.598;2023-12-14T09:00:47;13.98;;;10.32;;
23716;SDS011;22094;52.130;5.598;2023-12-14T09:03:17;17.33;;;11.30;;
23716;SDS011;22094;52.130;5.598;2023-12-14T09:05:43;15.05;;;11.63;;
23716;SDS011;22094;52.130;5.598;2023-12-14T09:08:10;14.77;;;10.93;;
23716;SDS011;22094;52.130;5.598;2023-12-14T09:10:35;15.80;;;11.20;;
23716;SDS011;22094;52.130;5.598;2023-12-14T09:13:01;16.55;;;10.52;;
23716;SDS011;22094;52.130;5.598;2023-12-14T09:15:29;15.32;;;11.57;;
23716;SDS011;22094;52.130;5.598;2023-12-14T09:17:57;20.50;;;12.13;;
23716;SDS011;22094;52.130;5.598;2023-12-14T09:20:23;15.75;;;12.10;;
23716;SDS011;22094;52.130;5.598;2023-12-14T09:22:49;16.75;;;11.75;;
23716;SDS011;22094;52.130;5.598;2023-12-14T09:25:15;28.48;;;11.95;;
23716;SDS011;22094;52.130;5.598;2023-12-14T09:27:41;14.20;;;11.10;;
23716;SDS011;22094;52.130;5.598;2023-12-14T09:30:07;18.23;;;11.43;;
23716;SDS011;22094;52.130;5.598;2023-12-14T09:32:33;16.30;;;11.30;;
23716;SDS011;22094;52.130;5.598;2023-12-14T09:34:59;18.42;;;11.45;;
23716;SDS011;22094;52.130;5.598;2023-12-14T09:37:25;17.85;;;11.02;;
23716;SDS011;22094;52.130;5.598;2023-12-14T09:39:50;16.38;;;10.77;;
23716;SDS011;22094;52.130;5.598;2023-12-14T09:42:16;15.70;;;11.48;;
23716;SDS011;22094;52.130;5.598;2023-12-14T09:44:44;13.73;;;10.73;;
23716;SDS011;22094;52.130;5.598;2023-12-14T09:47:11;17.95;;;12.38;;
23716;SDS011;22094;52.130;5.598;2023-12-14T09:49:37;15.27;;;11.45;;
23716;SDS011;22094;52.130;5.598;2023-12-14T09:52:06;15.90;;;11.25;;
23716;SDS011;22094;52.130;5.598;2023-12-14T09:54:31;14.18;;;10.57;;
23716;SDS011;22094;52.130;5.598;2023-12-14T09:56:57;14.70;;;11.00;;
23716;SDS011;22094;52.130;5.598;2023-12-14T09:59:23;13.82;;;11.20;;
23716;SDS011;22094;52.130;5.598;2023-12-14T10:01:48;14.45;;;10.65;;
23716;SDS011;22094;52.130;5.598;2023-12-14T10:04:18;13.25;;;10.02;;
23716;SDS011;22094;52.130;5.598;2023-12-14T10:06:45;14.02;;;9.75;;
23716;SDS011;22094;52.130;5.598;2023-12-14T10:09:12;16.52;;;10.68;;
23716;SDS011;22094;52.130;5.598;2023-12-14T10:11:40;12.73;;;10.25;;
23716;SDS011;22094;52.130;5.598;2023-12-14T10:14:22;14.10;;;11.02;;
23716;SDS011;22094;52.130;5.598;2023-12-14T10:16:50;17.70;;;10.82;;
23716;SDS011;22094;52.130;5.598;2023-12-14T10:19:17;14.57;;;10.65;;
23716;SDS011;22094;52.130;5.598;2023-12-14T10:21:43;16.65;;;11.05;;
23716;SDS011;22094;52.130;5.598;2023-12-14T10:24:11;13.02;;;10.45;;
23716;SDS011;22094;52.130;5.598;2023-12-14T10:26:37;19.80;;;10.63;;
23716;SDS011;22094;52.130;5.598;2023-12-14T10:29:02;19.58;;;10.73;;
23716;SDS011;22094;52.130;5.598;2023-12-14T10:31:30;13.45;;;10.32;;
23716;SDS011;22094;52.130;5.598;2023-12-14T10:33:55;13.95;;;9.98;;
23716;SDS011;22094;52.130;5.598;2023-12-14T10:36:21;13.25;;;9.68;;
23716;SDS011;22094;52.130;5.598;2023-12-14T10:38:52;13.85;;;10.23;;
23716;SDS011;22094;52.130;5.598;2023-12-14T10:41:18;15.57;;;9.95;;
23716;SDS011;22094;52.130;5.598;2023-12-14T10:43:47;10.98;;;9.32;;
23716;SDS011;22094;52.130;5.598;2023-12-14T10:46:13;14.95;;;9.85;;
23716;SDS011;22094;52.130;5.598;2023-12-14T10:48:39;13.70;;;9.82;;
23716;SDS011;22094;52.130;5.598;2023-12-14T10:51:09;11.63;;;9.75;;
23716;SDS011;22094;52.130;5.598;2023-12-14T10:53:36;14.93;;;10.00;;
23716;SDS011;22094;52.130;5.598;2023-12-14T10:56:03;12.35;;;9.63;;
23716;SDS011;22094;52.130;5.598;2023-12-14T10:58:48;12.05;;;9.13;;
23716;SDS011;22094;52.130;5.598;2023-12-14T11:01:23;11.75;;;9.65;;
23716;SDS011;22094;52.130;5.598;2023-12-14T11:03:49;11.80;;;8.93;;
23716;SDS011;22094;52.130;5.598;2023-12-14T11:08:52;13.43;;;10.07;;
23716;SDS011;22094;52.130;5.598;2023-12-14T11:11:21;14.43;;;10.13;;
23716;SDS011;22094;52.130;5.598;2023-12-14T11:13:50;14.93;;;9.95;;
23716;SDS011;22094;52.130;5.598;2023-12-14T11:16:21;12.15;;;9.60;;
23716;SDS011;22094;52.130;5.598;2023-12-14T11:18:47;15.35;;;9.90;;
23716;SDS011;22094;52.130;5.598;2023-12-14T11:21:19;13.05;;;10.13;;
23716;SDS011;22094;52.130;5.598;2023-12-14T11:23:47;13.25;;;9.88;;
23716;SDS011;22094;52.130;5.598;2023-12-14T11:26:20;11.75;;;9.40;;
23716;SDS011;22094;52.130;5.598;2023-12-14T11:28:49;13.00;;;10.32;;
23716;SDS011;22094;52.130;5.598;2023-12-14T11:31:16;13.90;;;9.70;;
23716;SDS011;22094;52.130;5.598;2023-12-14T11:33:41;13.75;;;9.88;;
23716;SDS011;22094;52.130;5.598;2023-12-14T11:36:10;13.63;;;10.07;;
23716;SDS011;22094;52.130;5.598;2023-12-14T11:38:36;13.52;;;9.55;;
23716;SDS011;22094;52.130;5.598;2023-12-14T11:41:02;14.63;;;9.95;;
23716;SDS011;22094;52.130;5.598;2023-12-14T11:43:28;15.02;;;10.45;;
23716;SDS011;22094;52.130;5.598;2023-12-14T11:45:54;13.77;;;10.73;;
23716;SDS011;22094;52.130;5.598;2023-12-14T11:48:20;12.38;;;9.65;;
23716;SDS011;22094;52.130;5.598;2023-12-14T11:50:46;13.25;;;9.32;;
23716;SDS011;22094;52.130;5.598;2023-12-14T11:53:12;14.73;;;9.95;;
23716;SDS011;22094;52.130;5.598;2023-12-14T11:55:39;11.30;;;8.85;;
23716;SDS011;22094;52.130;5.598;2023-12-14T11:58:06;11.35;;;9.35;;
23716;SDS011;22094;52.130;5.598;2023-12-14T12:00:33;12.55;;;9.70;;
23716;SDS011;22094;52.130;5.598;2023-12-14T12:03:12;11.52;;;9.57;;
23716;SDS011;22094;52.130;5.598;2023-12-14T12:05:47;17.10;;;13.77;;
23716;SDS011;22094;52.130;5.598;2023-12-14T12:08:14;16.63;;;11.63;;
23716;SDS011;22094;52.130;5.598;2023-12-14T12:10:42;11.75;;;9.88;;
23716;SDS011;22094;52.130;5.598;2023-12-14T12:13:12;10.77;;;9.65;;
23716;SDS011;22094;52.130;5.598;2023-12-14T12:15:45;16.98;;;15.07;;
23716;SDS011;22094;52.130;5.598;2023-12-14T12:18:12;11.35;;;9.32;;
23716;SDS011;22094;52.130;5.598;2023-12-14T12:20:39;12.15;;;9.40;;
23716;SDS011;22094;52.130;5.598;2023-12-14T12:23:04;12.00;;;8.93;;
23716;SDS011;22094;52.130;5.598;2023-12-14T12:25:30;12.15;;;9.20;;
23716;SDS011;22094;52.130;5.598;2023-12-14T12:27:57;12.98;;;9.13;;
23716;SDS011;22094;52.130;5.598;2023-12-14T12:30:23;12.63;;;9.48;;
23716;SDS011;22094;52.130;5.598;2023-12-14T12:32:49;12.35;;;9.73;;
23716;SDS011;22094;52.130;5.598;2023-12-14T12:35:19;11.63;;;8.98;;
23716;SDS011;22094;52.130;5.598;2023-12-14T12:37:46;11.82;;;9.32;;
23716;SDS011;22094;52.130;5.598;2023-12-14T12:40:11;13.85;;;9.18;;
23716;SDS011;22094;52.130;5.598;2023-12-14T12:42:37;11.32;;;9.35;;
23716;SDS011;22094;52.130;5.598;2023-12-14T12:45:04;10.98;;;9.70;;
23716;SDS011;22094;52.130;5.598;2023-12-14T12:47:30;11.52;;;9.27;;
23716;SDS011;22094;52.130;5.598;2023-12-14T12:49:56;11.93;;;9.50;;
23716;SDS011;22094;52.130;5.598;2023-12-14T12:52:21;15.00;;;10.88;;
23716;SDS011;22094;52.130;5.598;2023-12-14T12:54:47;19.50;;;12.77;;
23716;SDS011;22094;52.130;5.598;2023-12-14T12:57:13;20.45;;;12.32;;
23716;SDS011;22094;52.130;5.598;2023-12-14T12:59:38;16.52;;;12.00;;
23716;SDS011;22094;52.130;5.598;2023-12-14T13:02:04;14.98;;;11.43;;
23716;SDS011;22094;52.130;5.598;2023-12-14T13:04:30;14.65;;;10.77;;
23716;SDS011;22094;52.130;5.598;2023-12-14T13:06:56;16.27;;;12.05;;
23716;SDS011;22094;52.130;5.598;2023-12-14T13:09:22;18.05;;;13.00;;
23716;SDS011;22094;52.130;5.598;2023-12-14T13:11:48;15.20;;;11.55;;
23716;SDS011;22094;52.130;5.598;2023-12-14T13:14:15;18.05;;;10.38;;
23716;SDS011;22094;52.130;5.598;2023-12-14T13:16:41;12.85;;;10.00;;
23716;SDS011;22094;52.130;5.598;2023-12-14T13:19:07;13.02;;;10.35;;
23716;SDS011;22094;52.130;5.598;2023-12-14T13:21:33;12.43;;;10.27;;
23716;SDS011;22094;52.130;5.598;2023-12-14T13:23:59;14.25;;;10.73;;
23716;SDS011;22094;52.130;5.598;2023-12-14T13:26:24;13.23;;;9.82;;
23716;SDS011;22094;52.130;5.598;2023-12-14T13:28:53;13.63;;;10.57;;
23716;SDS011;22094;52.130;5.598;2023-12-14T13:31:22;13.93;;;10.30;;
23716;SDS011;22094;52.130;5.598;2023-12-14T13:33:47;14.07;;;10.93;;
23716;SDS011;22094;52.130;5.598;2023-12-14T13:36:14;12.20;;;10.50;;
23716;SDS011;22094;52.130;5.598;2023-12-14T13:38:40;15.77;;;11.15;;
23716;SDS011;22094;52.130;5.598;2023-12-14T13:41:06;13.02;;;10.90;;
23716;SDS011;22094;52.130;5.598;2023-12-14T13:43:33;15.10;;;10.80;;
23716;SDS011;22094;52.130;5.598;2023-12-14T13:45:58;15.43;;;11.55;;
23716;SDS011;22094;52.130;5.598;2023-12-14T13:48:24;14.25;;;10.93;;
23716;SDS011;22094;52.130;5.598;2023-12-14T13:50:54;15.32;;;11.65;;
23716;SDS011;22094;52.130;5.598;2023-12-14T13:53:20;19.33;;;11.57;;
23716;SDS011;22094;52.130;5.598;2023-12-14T13:55:46;18.73;;;12.15;;
23716;SDS011;22094;52.130;5.598;2023-12-14T13:58:13;18.40;;;12.38;;
23716;SDS011;22094;52.130;5.598;2023-12-14T14:00:39;14.63;;;12.43;;
23716;SDS011;22094;52.130;5.598;2023-12-14T14:03:05;14.80;;;11.48;;
23716;SDS011;22094;52.130;5.598;2023-12-14T14:05:31;16.20;;;12.18;;
23716;SDS011;22094;52.130;5.598;2023-12-14T14:07:57;13.77;;;11.35;;
23716;SDS011;22094;52.130;5.598;2023-12-14T14:10:23;15.10;;;11.32;;
23716;SDS011;22094;52.130;5.598;2023-12-14T14:12:49;16.73;;;10.98;;
23716;SDS011;22094;52.130;5.598;2023-12-14T14:15:15;15.70;;;11.40;;
23716;SDS011;22094;52.130;5.598;2023-12-14T14:17:41;13.18;;;10.40;;
23716;SDS011;22094;52.130;5.598;2023-12-14T14:20:07;14.20;;;11.00;;